Time;durP1;ratioP1;P1;durP2;ratioP2;P2;SDS_P1;SDS_P2;PMS_P1;PMS_P2;Temp;Humidity;BMP_temperature;BMP_pressure;BME280_temperature;BME280_humidity;BME280_pressure;Samples;Min_cycle;Max_cycle;Signal;HPM_P1;HPM_P2
2024/03/11 00:00:50;;;;;;;26.60;15.23;;;6.40;99.90;;;;;;5079696;28;20208;-52
2024/03/11 00:03:17;;;;;;;25.07;13.77;;;6.40;99.90;;;;;;5093804;28;20238;-49
2024/03/11 00:05:44;;;;;;;22.80;13.73;;;6.30;99.90;;;;;;5075585;28;20197;-54
2024/03/11 00:08:16;;;;;;;21.47;13.67;;;6.30;99.90;;;;;;5085788;28;20208;-53
2024/03/11 00:10:44;;;;;;;23.97;14.17;;;6.30;99.90;;;;;;5081084;28;20192;-50
2024/03/11 00:13:11;;;;;;;25.77;13.40;;;6.30;99.90;;;;;;5068601;28;20302;-57
2024/03/11 00:15:40;;;;;;;26.60;13.47;;;6.20;99.90;;;;;;5077994;28;20202;-51
2024/03/11 00:18:07;;;;;;;22.40;14.17;;;6.20;99.90;;;;;;5094519;28;20225;-53
2024/03/11 00:20:35;;;;;;;22.23;14.37;;;6.20;99.90;;;;;;5083109;28;20193;-54
2024/03/11 00:23:03;;;;;;;24.43;13.90;;;6.20;99.90;;;;;;5066235;28;20932;-50
2024/03/11 00:25:30;;;;;;;19.60;13.07;;;6.20;99.90;;;;;;5090885;28;20190;-49
2024/03/11 00:27:59;;;;;;;22.17;13.60;;;6.20;99.90;;;;;;5063454;28;20218;-49
2024/03/11 00:30:26;;;;;;;23.37;14.97;;;6.20;99.90;;;;;;5092140;28;20202;-49
2024/03/11 00:32:54;;;;;;;25.00;14.23;;;6.10;99.90;;;;;;5074782;28;20234;-48
2024/03/11 00:35:24;;;;;;;21.33;13.83;;;6.10;99.90;;;;;;5096892;28;20243;-47
2024/03/11 00:37:51;;;;;;;26.87;14.57;;;6.20;99.90;;;;;;5081151;28;20233;-50
2024/03/11 00:40:18;;;;;;;25.00;14.13;;;6.20;99.90;;;;;;5096620;28;20189;-47
2024/03/11 00:42:44;;;;;;;22.40;14.00;;;6.20;99.90;;;;;;5065962;28;20246;-52
2024/03/11 00:45:12;;;;;;;23.00;14.10;;;6.20;99.90;;;;;;5097897;28;20204;-48
2024/03/11 00:47:40;;;;;;;24.03;13.73;;;6.20;99.90;;;;;;5073938;28;20281;-51
2024/03/11 00:50:10;;;;;;;23.80;14.33;;;6.20;99.90;;;;;;5096847;28;20190;-50
2024/03/11 00:52:37;;;;;;;22.93;13.33;;;6.20;99.90;;;;;;5096560;28;20213;-54
2024/03/11 00:55:06;;;;;;;26.37;14.00;;;6.20;99.90;;;;;;5087409;28;20194;-47
2024/03/11 00:57:35;;;;;;;25.30;14.27;;;6.20;99.90;;;;;;5087462;28;20270;-53
2024/03/11 01:00:04;;;;;;;25.43;13.90;;;6.20;99.90;;;;;;5083850;28;20189;-47
2024/03/11 01:02:32;;;;;;;23.07;14.70;;;6.20;99.90;;;;;;5096099;28;20581;-51
2024/03/11 01:04:59;;;;;;;20.37;13.30;;;6.20;99.90;;;;;;5081877;28;20213;-51
2024/03/11 01:07:27;;;;;;;24.27;13.80;;;6.20;99.90;;;;;;5094847;28;20194;-48
2024/03/11 01:09:55;;;;;;;26.27;13.87;;;6.20;99.90;;;;;;5087796;28;20254;-47
2024/03/11 01:12:23;;;;;;;20.50;12.67;;;6.10;99.90;;;;;;5090654;28;20274;-47
2024/03/11 01:14:51;;;;;;;26.43;13.37;;;6.10;99.90;;;;;;5064490;28;20310;-51
2024/03/11 01:17:18;;;;;;;23.23;14.27;;;6.10;99.90;;;;;;5089943;28;20220;-51
2024/03/11 01:19:45;;;;;;;26.93;13.00;;;6.00;99.90;;;;;;5079576;28;20253;-52
2024/03/11 01:22:13;;;;;;;20.83;12.73;;;6.00;99.90;;;;;;5096395;28;20201;-50
2024/03/11 01:24:41;;;;;;;24.10;13.27;;;6.00;99.90;;;;;;5086368;28;20281;-55
2024/03/11 01:27:10;;;;;;;22.27;12.13;;;6.00;99.90;;;;;;5089480;28;20204;-49
2024/03/11 01:29:38;;;;;;;19.10;11.87;;;6.00;99.90;;;;;;5067627;28;20214;-50
2024/03/11 01:32:06;;;;;;;24.97;12.87;;;6.00;99.90;;;;;;5090269;28;20288;-47
2024/03/11 01:34:33;;;;;;;24.13;12.47;;;6.00;99.90;;;;;;5077775;28;20197;-53
2024/03/11 01:37:01;;;;;;;18.53;12.97;;;6.00;99.90;;;;;;5091068;28;20205;-52
2024/03/11 01:39:31;;;;;;;20.17;12.53;;;6.00;99.90;;;;;;5096376;28;20189;-52
2024/03/11 01:41:59;;;;;;;22.77;12.97;;;6.00;99.90;;;;;;5087243;28;20213;-49
2024/03/11 01:44:28;;;;;;;21.00;12.17;;;6.00;99.90;;;;;;5076797;28;20259;-47
2024/03/11 01:46:55;;;;;;;23.80;12.57;;;6.10;99.90;;;;;;5089169;28;20202;-49
2024/03/11 01:49:23;;;;;;;23.73;12.37;;;6.10;99.90;;;;;;5096998;28;20243;-49
2024/03/11 01:51:51;;;;;;;21.33;12.67;;;6.10;99.90;;;;;;5081480;28;20537;-50
2024/03/11 01:54:18;;;;;;;22.80;12.13;;;6.10;99.90;;;;;;5093052;28;20668;-47
2024/03/11 01:56:49;;;;;;;24.40;13.80;;;6.10;99.90;;;;;;5081683;28;20278;-50
2024/03/11 01:59:20;;;;;;;23.90;12.27;;;6.10;99.90;;;;;;5067100;28;20212;-49
2024/03/11 02:01:48;;;;;;;22.63;13.20;;;6.10;99.90;;;;;;5087508;28;20218;-49
2024/03/11 02:04:14;;;;;;;22.00;12.33;;;6.10;99.90;;;;;;5092652;28;20193;-50
2024/03/11 02:06:42;;;;;;;25.43;12.97;;;6.10;99.90;;;;;;5076463;28;20667;-53
2024/03/11 02:09:09;;;;;;;28.27;13.90;;;6.10;99.90;;;;;;5093292;28;20197;-48
2024/03/11 02:11:36;;;;;;;19.60;12.47;;;6.10;99.90;;;;;;5073747;28;20273;-53
2024/03/11 02:14:05;;;;;;;20.60;12.50;;;6.10;99.90;;;;;;5096299;28;20220;-49
2024/03/11 02:16:33;;;;;;;21.27;12.90;;;6.20;99.90;;;;;;5067423;28;20259;-53
2024/03/11 02:19:00;;;;;;;26.43;12.87;;;6.20;99.90;;;;;;5094084;28;20233;-52
2024/03/11 02:21:29;;;;;;;25.17;12.03;;;6.20;99.90;;;;;;5080510;28;20221;-54
2024/03/11 02:23:58;;;;;;;23.03;13.23;;;6.20;99.90;;;;;;5095376;28;20192;-52
2024/03/11 02:26:25;;;;;;;20.60;12.83;;;6.20;99.90;;;;;;5091976;28;20198;-53
2024/03/11 02:28:52;;;;;;;21.77;11.63;;;6.20;99.90;;;;;;5090657;28;20183;-50
2024/03/11 02:31:19;;;;;;;23.27;13.23;;;6.20;99.90;;;;;;5074479;28;20241;-52
2024/03/11 02:33:45;;;;;;;23.90;12.93;;;6.20;99.90;;;;;;5097486;28;20928;-50
2024/03/11 02:36:12;;;;;;;21.20;12.93;;;6.20;99.90;;;;;;5099619;28;20238;-52
2024/03/11 02:38:39;;;;;;;19.50;12.70;;;6.20;99.90;;;;;;5079306;28;20270;-51
2024/03/11 02:41:07;;;;;;;23.63;13.20;;;6.20;99.90;;;;;;5098153;28;20193;-50
2024/03/11 02:43:34;;;;;;;19.10;11.93;;;6.20;99.90;;;;;;5086550;28;20274;-52
2024/03/11 02:46:01;;;;;;;23.90;12.67;;;6.20;99.90;;;;;;5098080;28;20197;-48
2024/03/11 02:48:28;;;;;;;21.20;12.67;;;6.20;99.90;;;;;;5070996;28;20208;-53
2024/03/11 02:50:55;;;;;;;21.80;12.00;;;6.20;99.90;;;;;;5096217;28;20189;-52
2024/03/11 02:53:23;;;;;;;17.80;12.43;;;6.20;99.90;;;;;;5077823;28;20217;-54
2024/03/11 02:55:50;;;;;;;19.00;12.90;;;6.20;99.90;;;;;;5097043;28;20272;-49
2024/03/11 02:58:18;;;;;;;21.50;12.93;;;6.20;99.90;;;;;;5092699;28;20224;-53
2024/03/11 03:00:45;;;;;;;24.07;12.23;;;6.20;99.90;;;;;;5085663;28;20197;-48
2024/03/11 03:03:14;;;;;;;24.23;11.97;;;6.20;99.90;;;;;;5069817;28;20292;-47
2024/03/11 03:05:41;;;;;;;21.60;12.47;;;6.20;99.90;;;;;;5092890;28;20242;-50
2024/03/11 03:08:08;;;;;;;21.17;12.90;;;6.20;99.90;;;;;;5079304;28;20221;-46
2024/03/11 03:10:34;;;;;;;23.30;13.33;;;6.20;99.90;;;;;;5091288;28;20185;-54
2024/03/11 03:13:01;;;;;;;19.40;11.33;;;6.20;99.90;;;;;;5099002;28;20258;-51
2024/03/11 03:15:29;;;;;;;21.90;12.87;;;6.20;99.90;;;;;;5085084;28;20214;-53
2024/03/11 03:17:56;;;;;;;18.87;12.43;;;6.20;99.90;;;;;;5071504;28;20226;-51
2024/03/11 03:20:23;;;;;;;22.47;12.57;;;6.20;99.90;;;;;;5095805;28;20243;-52
2024/03/11 03:22:50;;;;;;;21.77;12.13;;;6.20;99.90;;;;;;5074504;28;21306;-50
2024/03/11 03:25:17;;;;;;;22.73;12.53;;;6.20;99.90;;;;;;5100252;28;20196;-49
2024/03/11 03:27:44;;;;;;;20.03;12.00;;;6.10;99.90;;;;;;5087928;28;20189;-49
2024/03/11 03:30:15;;;;;;;19.20;12.50;;;6.10;99.90;;;;;;5087635;28;20201;-51
2024/03/11 03:32:43;;;;;;;22.80;12.33;;;6.10;99.90;;;;;;5066714;28;22429;-48
2024/03/11 03:35:11;;;;;;;20.93;12.00;;;6.10;99.90;;;;;;5095641;28;20194;-51
2024/03/11 03:37:38;;;;;;;22.47;13.07;;;6.10;99.90;;;;;;5093063;28;20251;-49
2024/03/11 03:40:15;;;;;;;21.33;12.67;;;6.10;99.90;;;;;;5082361;28;20638;-47
2024/03/11 03:42:42;;;;;;;21.63;12.30;;;6.20;99.90;;;;;;5085926;28;20837;-48
2024/03/11 03:45:10;;;;;;;20.07;11.97;;;6.20;99.90;;;;;;5088330;28;20795;-48
2024/03/11 03:47:37;;;;;;;19.37;12.57;;;6.20;99.90;;;;;;5095794;28;20926;-49
2024/03/11 03:50:10;;;;;;;22.97;12.77;;;6.20;99.90;;;;;;5063462;28;20208;-52
2024/03/11 03:52:38;;;;;;;19.73;12.30;;;6.20;99.90;;;;;;5096810;28;20217;-49
2024/03/11 03:55:05;;;;;;;23.87;12.43;;;6.20;99.90;;;;;;5081009;28;20209;-49
2024/03/11 03:57:32;;;;;;;22.23;12.40;;;6.20;99.90;;;;;;5098632;28;20220;-53
2024/03/11 04:00:00;;;;;;;23.23;13.53;;;6.20;99.90;;;;;;5083915;28;20196;-51
2024/03/11 04:02:27;;;;;;;18.30;12.00;;;6.20;99.90;;;;;;5090984;28;20557;-52
2024/03/11 04:04:53;;;;;;;21.77;13.63;;;6.20;99.90;;;;;;5070912;28;20209;-48
2024/03/11 04:07:22;;;;;;;21.17;12.70;;;6.20;99.90;;;;;;5095065;28;20881;-51
2024/03/11 04:09:48;;;;;;;20.03;12.77;;;6.30;99.90;;;;;;5091541;28;20189;-51
2024/03/11 04:12:16;;;;;;;18.20;12.33;;;6.30;99.90;;;;;;5075230;28;20229;-47
2024/03/11 04:14:43;;;;;;;22.90;12.80;;;6.30;99.90;;;;;;5090819;28;20948;-49
2024/03/11 04:17:10;;;;;;;21.90;12.67;;;6.30;99.90;;;;;;5086606;28;20217;-50
2024/03/11 04:19:37;;;;;;;21.97;12.00;;;6.20;99.90;;;;;;5053188;28;20220;-50
2024/03/11 04:22:04;;;;;;;21.60;12.40;;;6.20;99.90;;;;;;5092532;28;20626;-47
2024/03/11 04:24:32;;;;;;;20.20;12.13;;;6.20;99.90;;;;;;5087123;28;20668;-50
2024/03/11 04:26:59;;;;;;;24.70;13.57;;;6.20;99.90;;;;;;5074822;28;20206;-51
2024/03/11 04:29:27;;;;;;;20.83;12.20;;;6.20;99.90;;;;;;5094479;28;21067;-53
2024/03/11 04:31:56;;;;;;;20.43;13.27;;;6.20;99.90;;;;;;5068067;28;20214;-54
2024/03/11 04:34:23;;;;;;;22.53;13.30;;;6.20;99.90;;;;;;5071352;28;20206;-48
2024/03/11 04:36:50;;;;;;;23.97;12.33;;;6.20;99.90;;;;;;5097821;28;20617;-53
2024/03/11 04:39:17;;;;;;;20.43;11.40;;;6.20;99.90;;;;;;5093390;28;20234;-47
2024/03/11 04:41:45;;;;;;;21.93;13.57;;;6.20;99.90;;;;;;5078520;28;20259;-52
2024/03/11 04:44:12;;;;;;;20.03;12.67;;;6.20;99.90;;;;;;5093847;28;20254;-48
2024/03/11 04:46:39;;;;;;;19.60;11.90;;;6.20;99.90;;;;;;5087333;28;20197;-52
2024/03/11 04:49:06;;;;;;;22.00;13.33;;;6.20;99.90;;;;;;5097125;28;20186;-49
2024/03/11 04:51:33;;;;;;;21.87;12.43;;;6.20;99.90;;;;;;5060939;28;20218;-47
2024/03/11 04:54:00;;;;;;;18.83;12.63;;;6.20;99.90;;;;;;5096591;28;20205;-50
2024/03/11 04:56:28;;;;;;;23.93;12.67;;;6.30;99.90;;;;;;5079823;28;21666;-51
2024/03/11 04:58:56;;;;;;;23.00;13.37;;;6.30;99.90;;;;;;5093295;28;20615;-47
2024/03/11 05:01:23;;;;;;;18.67;12.33;;;6.30;99.90;;;;;;5072465;28;20213;-47
2024/03/11 05:03:50;;;;;;;17.40;11.97;;;6.30;99.90;;;;;;5085658;28;20194;-49
2024/03/11 05:06:18;;;;;;;22.27;12.47;;;6.30;99.90;;;;;;5062869;28;20197;-52
2024/03/11 05:08:46;;;;;;;20.03;11.97;;;6.30;99.90;;;;;;5090220;28;21430;-48
2024/03/11 05:11:13;;;;;;;27.43;13.67;;;6.30;99.90;;;;;;5086736;28;20263;-53
2024/03/11 05:13:40;;;;;;;18.50;12.43;;;6.30;99.90;;;;;;5073427;28;20193;-52
2024/03/11 05:16:09;;;;;;;21.60;12.50;;;6.30;99.90;;;;;;5087000;28;20660;-54
2024/03/11 05:18:35;;;;;;;20.37;12.00;;;6.30;99.90;;;;;;5078252;28;20202;-50
2024/03/11 05:21:02;;;;;;;22.00;12.40;;;6.30;99.90;;;;;;5066812;28;21137;-53
2024/03/11 05:23:29;;;;;;;20.43;12.40;;;6.30;99.90;;;;;;5094839;28;20245;-50
2024/03/11 05:25:56;;;;;;;19.33;12.57;;;6.30;99.90;;;;;;5095229;28;20198;-54
2024/03/11 05:28:23;;;;;;;20.20;12.43;;;6.30;99.90;;;;;;5078715;28;20380;-51
2024/03/11 05:30:49;;;;;;;20.60;12.87;;;6.40;99.90;;;;;;5099037;28;20257;-52
2024/03/11 05:33:20;;;;;;;21.17;12.40;;;6.40;99.90;;;;;;5089511;28;20616;-48
2024/03/11 05:35:47;;;;;;;20.53;12.07;;;6.40;99.90;;;;;;5095231;28;20197;-52
2024/03/11 05:38:13;;;;;;;21.03;12.37;;;6.40;99.90;;;;;;5073474;28;21222;-48
2024/03/11 05:40:40;;;;;;;20.20;12.20;;;6.40;99.90;;;;;;5091926;28;20194;-50
2024/03/11 05:43:08;;;;;;;18.70;12.17;;;6.40;99.90;;;;;;5087238;28;20277;-48
2024/03/11 05:45:35;;;;;;;22.33;12.03;;;6.40;99.90;;;;;;5073062;28;20209;-51
2024/03/11 05:48:04;;;;;;;23.80;12.73;;;6.40;99.90;;;;;;5089774;28;20200;-50
2024/03/11 05:50:32;;;;;;;20.57;12.07;;;6.40;99.90;;;;;;5082931;28;20294;-52
2024/03/11 05:52:59;;;;;;;25.40;12.80;;;6.40;99.90;;;;;;5067395;28;20298;-47
2024/03/11 05:55:32;;;;;;;20.97;13.03;;;6.40;99.90;;;;;;5094822;28;20202;-52
2024/03/11 05:58:08;;;;;;;20.60;12.83;;;6.40;99.90;;;;;;5095986;28;20285;-51
2024/03/11 06:00:36;;;;;;;17.83;11.57;;;6.40;99.90;;;;;;5071939;28;20197;-51
2024/03/11 06:03:04;;;;;;;22.80;12.67;;;6.40;99.90;;;;;;5091791;28;20312;-51
2024/03/11 06:05:32;;;;;;;24.40;12.53;;;6.40;99.90;;;;;;5085471;28;20214;-53
2024/03/11 06:07:58;;;;;;;20.50;12.33;;;6.50;99.90;;;;;;5063003;28;20214;-46
2024/03/11 06:10:25;;;;;;;21.10;12.50;;;6.40;99.90;;;;;;5087616;28;20543;-52
2024/03/11 06:12:52;;;;;;;21.20;12.30;;;6.40;99.90;;;;;;5087114;28;20222;-51
2024/03/11 06:15:21;;;;;;;24.13;13.47;;;6.50;99.90;;;;;;5082933;28;20197;-51
2024/03/11 06:17:48;;;;;;;17.93;11.13;;;6.50;99.90;;;;;;5083430;28;20281;-47
2024/03/11 06:20:16;;;;;;;21.40;12.50;;;6.50;99.90;;;;;;5082519;28;20205;-48
2024/03/11 06:22:45;;;;;;;19.27;12.60;;;6.50;99.90;;;;;;5066420;28;20318;-51
2024/03/11 06:25:15;;;;;;;22.63;12.43;;;6.50;99.90;;;;;;5088666;28;20604;-51
2024/03/11 06:27:43;;;;;;;21.70;13.23;;;6.50;99.90;;;;;;5074934;28;20197;-50
2024/03/11 06:30:10;;;;;;;20.30;12.97;;;6.50;99.90;;;;;;5076915;28;20198;-48
2024/03/11 06:32:39;;;;;;;18.77;13.03;;;6.50;99.90;;;;;;5088857;28;20262;-52
2024/03/11 06:35:07;;;;;;;21.03;13.17;;;6.50;99.90;;;;;;5093274;28;20201;-49
2024/03/11 06:37:34;;;;;;;25.27;13.30;;;6.50;99.90;;;;;;5070927;28;20210;-50
2024/03/11 06:40:03;;;;;;;26.57;11.70;;;6.50;99.90;;;;;;5060768;28;20515;-51
2024/03/11 06:42:29;;;;;;;25.70;12.77;;;6.50;99.90;;;;;;5092036;28;20396;-47
2024/03/11 06:44:56;;;;;;;19.43;12.43;;;6.50;99.90;;;;;;5086008;28;20239;-51
2024/03/11 06:47:24;;;;;;;19.37;12.50;;;6.50;99.90;;;;;;5070002;28;20286;-51
2024/03/11 06:49:51;;;;;;;24.77;12.50;;;6.60;99.90;;;;;;5093998;28;20194;-49
2024/03/11 06:52:18;;;;;;;22.40;12.20;;;6.60;99.90;;;;;;5078283;28;20217;-48
2024/03/11 06:54:45;;;;;;;22.97;12.27;;;6.60;99.90;;;;;;5065326;28;20202;-47
2024/03/11 06:57:13;;;;;;;19.33;11.87;;;6.60;99.90;;;;;;5091004;28;20615;-54
2024/03/11 06:59:40;;;;;;;23.83;12.27;;;6.60;99.90;;;;;;5078026;28;20213;-50
2024/03/11 07:02:07;;;;;;;20.27;12.00;;;6.60;99.90;;;;;;5078817;28;20282;-52
2024/03/11 07:04:34;;;;;;;18.37;12.37;;;6.70;99.90;;;;;;5086189;28;20197;-51
2024/03/11 07:07:01;;;;;;;18.83;11.33;;;6.70;99.90;;;;;;5070469;28;20203;-50
2024/03/11 07:09:28;;;;;;;17.90;12.03;;;6.70;99.90;;;;;;5062260;28;20202;-48
2024/03/11 07:11:55;;;;;;;21.63;12.73;;;6.70;99.90;;;;;;5079090;28;20233;-47
2024/03/11 07:14:24;;;;;;;20.37;12.57;;;6.70;99.90;;;;;;5078168;28;21186;-50
2024/03/11 07:16:53;;;;;;;20.40;11.53;;;6.70;99.90;;;;;;5066127;28;20624;-48
2024/03/11 07:19:20;;;;;;;19.37;11.53;;;6.70;99.90;;;;;;5091145;28;20227;-47
2024/03/11 07:21:48;;;;;;;21.40;12.83;;;6.70;99.90;;;;;;5089674;28;20224;-49
2024/03/11 07:24:19;;;;;;;18.93;11.70;;;6.70;99.90;;;;;;5072160;28;20270;-48
2024/03/11 07:26:46;;;;;;;19.30;12.10;;;6.70;99.90;;;;;;5047820;28;20215;-47
2024/03/11 07:29:12;;;;;;;20.47;11.30;;;6.70;99.90;;;;;;5087756;28;20213;-50
2024/03/11 07:31:41;;;;;;;19.07;12.13;;;6.70;99.90;;;;;;5052666;28;20235;-47
2024/03/11 07:34:08;;;;;;;17.23;12.00;;;6.80;99.90;;;;;;5085040;28;20193;-51
2024/03/11 07:36:36;;;;;;;17.50;11.80;;;6.80;99.90;;;;;;5085347;28;20847;-46
2024/03/11 07:39:04;;;;;;;21.50;11.53;;;6.80;99.90;;;;;;5079135;28;20638;-44
2024/03/11 07:41:32;;;;;;;16.23;12.00;;;6.80;99.90;;;;;;5062032;28;20216;-47
2024/03/11 07:44:00;;;;;;;22.40;12.03;;;6.80;99.90;;;;;;5082388;28;20194;-46
2024/03/11 07:46:28;;;;;;;19.77;11.83;;;6.80;99.90;;;;;;5069830;28;20948;-51
2024/03/11 07:48:59;;;;;;;20.17;11.70;;;6.80;99.90;;;;;;5087765;28;20243;-46
2024/03/11 07:51:27;;;;;;;22.23;11.53;;;6.90;99.90;;;;;;5076802;28;20792;-45
2024/03/11 07:53:55;;;;;;;20.37;12.20;;;6.90;99.90;;;;;;5086538;28;20202;-47
2024/03/11 07:56:22;;;;;;;18.90;12.00;;;6.90;99.90;;;;;;5067683;28;20244;-50
2024/03/11 07:58:51;;;;;;;18.70;11.23;;;6.90;99.90;;;;;;5080742;28;20796;-46
2024/03/11 08:01:21;;;;;;;23.03;12.10;;;7.00;99.90;;;;;;5075797;28;20636;-49
2024/03/11 08:03:50;;;;;;;18.20;11.53;;;7.00;99.90;;;;;;5081116;28;20567;-46
2024/03/11 08:06:19;;;;;;;20.10;11.97;;;7.00;99.90;;;;;;5093328;28;20662;-51
2024/03/11 08:08:46;;;;;;;22.03;12.03;;;7.10;99.90;;;;;;5078639;28;20259;-46
2024/03/11 08:11:14;;;;;;;18.17;11.17;;;7.10;99.90;;;;;;5077041;28;20675;-51
2024/03/11 08:13:42;;;;;;;18.43;11.17;;;7.10;99.90;;;;;;5080880;28;21073;-46
2024/03/11 08:16:11;;;;;;;18.97;10.80;;;7.10;99.90;;;;;;5087077;28;20209;-48
2024/03/11 08:18:39;;;;;;;18.73;11.07;;;7.20;99.90;;;;;;5079906;28;20286;-45
2024/03/11 08:21:09;;;;;;;17.50;10.93;;;7.20;99.90;;;;;;5088518;28;20198;-49
2024/03/11 08:23:40;;;;;;;24.03;12.27;;;7.20;99.90;;;;;;5081573;28;20216;-49
2024/03/11 08:26:08;;;;;;;16.63;10.83;;;7.20;99.90;;;;;;5092393;28;20198;-52
2024/03/11 08:28:38;;;;;;;19.73;11.30;;;7.30;99.90;;;;;;5060242;28;20198;-45
2024/03/11 08:31:07;;;;;;;17.83;10.67;;;7.30;99.90;;;;;;5088478;28;20224;-48
2024/03/11 08:33:35;;;;;;;19.37;11.73;;;7.30;99.90;;;;;;5079984;28;20707;-49
2024/03/11 08:36:04;;;;;;;20.27;11.63;;;7.30;99.90;;;;;;5091115;28;20269;-46
2024/03/11 08:38:32;;;;;;;16.40;11.03;;;7.30;99.90;;;;;;5078113;28;20289;-46
2024/03/11 08:41:03;;;;;;;14.67;10.27;;;7.30;99.90;;;;;;5090365;28;20224;-48
2024/03/11 08:43:31;;;;;;;21.67;11.73;;;7.40;99.90;;;;;;5061323;28;20264;-51
2024/03/11 08:45:59;;;;;;;17.00;10.57;;;7.40;99.90;;;;;;5081221;28;20859;-49
2024/03/11 08:48:27;;;;;;;18.50;11.43;;;7.40;99.90;;;;;;5073510;28;20886;-48
2024/03/11 08:50:55;;;;;;;18.30;11.40;;;7.50;99.90;;;;;;5090932;28;20207;-45
2024/03/11 08:53:23;;;;;;;16.10;10.97;;;7.50;99.90;;;;;;5084178;28;20735;-48
2024/03/11 08:55:50;;;;;;;20.07;11.37;;;7.50;99.90;;;;;;5086981;28;20209;-48
2024/03/11 08:58:19;;;;;;;16.53;10.47;;;7.50;99.90;;;;;;5075486;28;20618;-50
2024/03/11 09:00:46;;;;;;;18.97;11.73;;;7.50;99.90;;;;;;5083232;28;20274;-47
2024/03/11 09:03:15;;;;;;;20.13;11.33;;;7.50;99.90;;;;;;5079101;28;20233;-47
2024/03/11 09:05:42;;;;;;;18.17;10.97;;;7.50;99.90;;;;;;5085850;28;20190;-45
2024/03/11 09:08:10;;;;;;;16.37;10.77;;;7.50;99.90;;;;;;5084411;28;20206;-48
2024/03/11 09:10:37;;;;;;;19.53;11.20;;;7.60;99.90;;;;;;5080087;28;21805;-49
2024/03/11 09:13:07;;;;;;;23.87;12.80;;;7.50;99.90;;;;;;5094972;28;20225;-47
2024/03/11 09:15:36;;;;;;;18.30;11.23;;;7.50;99.90;;;;;;5064292;28;20337;-48
2024/03/11 09:18:03;;;;;;;22.00;12.03;;;7.60;99.90;;;;;;5090320;28;20753;-48
2024/03/11 09:20:31;;;;;;;17.03;11.60;;;7.60;99.90;;;;;;5078678;28;20212;-51
2024/03/11 09:22:58;;;;;;;19.70;11.37;;;7.60;99.90;;;;;;5083514;28;20230;-47
2024/03/11 09:25:27;;;;;;;19.07;11.30;;;7.60;99.90;;;;;;5082106;28;20980;-48
2024/03/11 09:28:00;;;;;;;17.77;10.83;;;7.50;99.90;;;;;;5083130;28;20193;-46
2024/03/11 09:30:31;;;;;;;18.47;11.77;;;7.60;99.90;;;;;;5070436;28;21473;-45
2024/03/11 09:32:59;;;;;;;18.47;10.70;;;7.60;99.90;;;;;;5077012;28;20283;-47
2024/03/11 09:35:28;;;;;;;15.33;10.63;;;7.60;99.90;;;;;;5088183;28;20251;-45
2024/03/11 09:37:56;;;;;;;15.07;10.50;;;7.70;99.90;;;;;;5084040;28;20205;-45
2024/03/11 09:40:26;;;;;;;17.20;11.43;;;7.70;99.90;;;;;;5084592;28;20209;-50
2024/03/11 09:42:55;;;;;;;17.23;10.77;;;7.70;99.90;;;;;;5088353;28;20291;-47
2024/03/11 09:45:27;;;;;;;20.40;11.17;;;7.80;99.90;;;;;;5067561;28;20206;-50
2024/03/11 09:47:57;;;;;;;17.20;11.60;;;7.80;99.90;;;;;;5088739;28;20612;-48
2024/03/11 09:50:28;;;;;;;21.90;11.40;;;7.90;99.90;;;;;;5068351;28;20212;-50
2024/03/11 09:52:58;;;;;;;17.43;10.60;;;7.90;99.90;;;;;;5085879;28;20222;-45
2024/03/11 09:55:28;;;;;;;15.40;10.70;;;8.00;99.90;;;;;;5086400;28;20194;-51
2024/03/11 09:58:02;;;;;;;15.03;10.53;;;8.00;99.90;;;;;;5080980;28;20202;-47
2024/03/11 10:00:32;;;;;;;16.53;11.30;;;8.10;99.90;;;;;;5062237;28;21700;-50
2024/03/11 10:03:01;;;;;;;15.47;10.07;;;8.10;99.90;;;;;;5090420;28;21805;-49
2024/03/11 10:05:32;;;;;;;17.53;10.97;;;8.20;99.90;;;;;;5067139;28;20222;-47
2024/03/11 10:08:01;;;;;;;17.93;11.33;;;8.20;99.90;;;;;;5090651;28;20250;-48
2024/03/11 10:10:29;;;;;;;15.87;10.30;;;8.20;99.90;;;;;;5087409;28;20202;-48
2024/03/11 10:13:00;;;;;;;16.07;11.50;;;8.20;99.90;;;;;;5084441;28;20241;-47
2024/03/11 10:15:29;;;;;;;22.13;12.00;;;8.20;99.90;;;;;;5066003;28;20867;-53
2024/03/11 10:18:01;;;;;;;21.67;11.83;;;8.30;99.90;;;;;;5089722;28;20194;-50
2024/03/11 10:20:34;;;;;;;23.43;11.83;;;8.30;99.90;;;;;;5090467;28;20598;-48
2024/03/11 10:23:09;;;;;;;15.50;10.93;;;8.30;99.90;;;;;;5080742;28;20248;-52
2024/03/11 10:25:40;;;;;;;18.43;11.27;;;8.30;99.90;;;;;;5081612;28;20860;-48
2024/03/11 10:28:07;;;;;;;20.93;11.73;;;8.30;99.90;;;;;;5085715;28;20253;-49
2024/03/11 10:30:35;;;;;;;18.27;11.73;;;8.30;99.90;;;;;;5079005;28;20288;-50
2024/03/11 10:33:02;;;;;;;15.33;11.40;;;8.30;99.90;;;;;;5072061;28;20703;-44
2024/03/11 10:35:34;;;;;;;17.03;11.57;;;8.20;99.90;;;;;;5084449;28;20195;-48
2024/03/11 10:38:10;;;;;;;16.10;11.10;;;8.30;99.90;;;;;;5077769;28;20284;-47
2024/03/11 10:40:39;;;;;;;21.27;12.37;;;8.30;99.90;;;;;;5084473;28;20209;-47
2024/03/11 10:43:23;;;;;;;19.30;11.53;;;8.30;99.90;;;;;;5091601;28;20224;-47
2024/03/11 10:45:50;;;;;;;16.17;11.60;;;8.30;99.90;;;;;;5094098;28;20205;-46
2024/03/11 10:48:17;;;;;;;17.70;11.17;;;8.20;99.90;;;;;;5061422;28;20209;-48
2024/03/11 10:50:47;;;;;;;19.63;12.53;;;8.20;99.90;;;;;;5086530;28;20900;-50
2024/03/11 10:53:21;;;;;;;19.23;11.57;;;8.30;99.90;;;;;;5082955;28;20780;-48
2024/03/11 10:55:55;;;;;;;16.30;11.53;;;8.30;99.90;;;;;;5085856;28;20262;-49
2024/03/11 10:58:25;;;;;;;22.33;11.67;;;8.30;99.90;;;;;;5087621;28;20195;-48
2024/03/11 11:00:54;;;;;;;22.37;12.60;;;8.30;99.90;;;;;;5088595;28;20213;-51
2024/03/11 11:03:23;;;;;;;16.00;12.17;;;8.30;99.90;;;;;;5069664;28;20800;-51
2024/03/11 11:05:53;;;;;;;17.40;12.13;;;8.30;99.90;;;;;;5090854;28;20233;-47
2024/03/11 11:08:22;;;;;;;19.60;12.10;;;8.30;99.90;;;;;;5066763;28;20205;-45
2024/03/11 11:10:51;;;;;;;18.10;11.80;;;8.30;99.90;;;;;;5081538;28;20198;-47
2024/03/11 11:13:23;;;;;;;20.57;12.40;;;8.30;99.90;;;;;;5091233;28;20213;-46
2024/03/11 11:15:50;;;;;;;18.17;12.10;;;8.30;99.90;;;;;;5071045;28;20302;-49
2024/03/11 11:18:24;;;;;;;19.00;11.57;;;8.30;99.90;;;;;;5091866;28;20193;-47
2024/03/11 11:20:53;;;;;;;19.70;12.10;;;8.30;99.90;;;;;;5062784;28;20283;-49
2024/03/11 11:23:28;;;;;;;17.70;12.50;;;8.30;99.90;;;;;;5065660;28;20275;-47
2024/03/11 11:25:56;;;;;;;16.50;13.20;;;8.30;99.90;;;;;;5075353;28;20221;-45
2024/03/11 11:28:28;;;;;;;23.50;13.03;;;8.30;99.90;;;;;;5078527;28;20556;-47
2024/03/11 11:31:25;;;;;;;19.97;13.27;;;8.40;99.90;;;;;;5074556;28;20198;-46
2024/03/11 11:33:54;;;;;;;18.87;13.20;;;8.30;99.90;;;;;;5086307;28;20229;-45
2024/03/11 11:37:02;;;;;;;16.93;12.23;;;8.40;99.90;;;;;;5062359;28;20224;-47
2024/03/11 11:39:35;;;;;;;18.83;11.93;;;8.40;99.90;;;;;;5073775;28;20674;-46
2024/03/11 11:42:02;;;;;;;18.33;12.50;;;8.40;99.90;;;;;;5079436;28;21348;-48
2024/03/11 11:44:49;;;;;;;19.20;12.77;;;8.40;99.90;;;;;;5090849;28;20189;-46
2024/03/11 11:47:21;;;;;;;20.17;13.07;;;8.40;99.90;;;;;;5090596;28;20294;-48
2024/03/11 11:49:48;;;;;;;20.57;12.53;;;8.40;99.90;;;;;;5085664;28;20217;-46
2024/03/11 11:52:18;;;;;;;18.40;12.70;;;8.50;99.90;;;;;;5066057;28;20719;-47
2024/03/11 11:54:46;;;;;;;21.13;13.73;;;8.60;99.90;;;;;;5065141;28;20289;-47
2024/03/11 11:57:15;;;;;;;20.70;12.70;;;8.60;99.90;;;;;;5085021;28;20209;-47
2024/03/11 11:59:44;;;;;;;18.13;13.13;;;8.60;99.90;;;;;;5087340;28;20201;-47
2024/03/11 12:02:20;;;;;;;16.57;12.23;;;8.70;99.90;;;;;;5089195;28;20288;-47
2024/03/11 12:04:53;;;;;;;21.17;12.50;;;8.70;99.90;;;;;;5081526;28;20204;-45
2024/03/11 12:07:25;;;;;;;21.43;13.43;;;8.70;99.90;;;;;;5064753;28;20201;-45
2024/03/11 12:09:54;;;;;;;23.50;12.90;;;8.70;99.90;;;;;;5064664;28;20192;-48
2024/03/11 12:12:32;;;;;;;21.90;13.83;;;8.70;99.90;;;;;;5087383;28;20317;-49
2024/03/11 12:15:01;;;;;;;23.00;13.30;;;8.70;99.90;;;;;;5089058;28;20193;-50
2024/03/11 12:17:29;;;;;;;20.23;13.57;;;8.70;99.90;;;;;;5086548;28;20762;-48
2024/03/11 12:20:20;;;;;;;21.20;13.17;;;8.70;99.90;;;;;;5075870;28;20788;-45
2024/03/11 12:22:49;;;;;;;18.53;13.40;;;8.70;99.90;;;;;;5058321;28;20236;-46
2024/03/11 12:25:17;;;;;;;21.47;14.50;;;8.70;99.90;;;;;;5056188;28;21771;-45
2024/03/11 12:27:46;;;;;;;22.07;12.97;;;8.70;99.90;;;;;;5078871;28;20236;-48
2024/03/11 12:30:18;;;;;;;21.00;13.47;;;8.70;99.90;;;;;;5073408;28;20234;-46
2024/03/11 12:32:56;;;;;;;21.73;13.43;;;8.70;99.90;;;;;;5078113;28;20275;-48
2024/03/11 12:35:25;;;;;;;23.47;14.30;;;8.70;99.90;;;;;;5077748;28;20201;-47
2024/03/11 12:37:57;;;;;;;17.33;13.20;;;8.60;99.90;;;;;;5064649;28;20229;-51
2024/03/11 12:40:25;;;;;;;17.23;13.50;;;8.60;99.90;;;;;;5057928;28;20287;-46
2024/03/11 12:42:54;;;;;;;24.60;13.70;;;8.60;99.90;;;;;;5069902;28;20222;-50